ENHF

Details ICAO ENHF (HFT)
Name Hammerfest
Region Norway
Timezone Europe/Oslo (UTC+2.0)
Plans Departing 64
Arriving 92
Stats Elevation 262 ft / 80 m (AMSL)
Location 70.679400° 23.668000°
Runways 1
Magnetic Variation 12.188° E
Sunrise 2019-04-25 01:24:38 UTC / 2019-04-25 03:24:38 Local
Sunset 2019-04-25 19:24:23 UTC / 2019-04-25 21:24:23 Local
Advertisement - Login to hide

Runways

ID Width Length Bearing (true/mag) Surface Threshold Overrun Markings Lighting
05 98 ft / 30 m 3,053 ft / 930 m 55.91° / 43.72° ASPHALT 135 ft / 41 m 0 ft / 0 m APP CENTERLINE EDGE THRESHOLD RAIL
23 98 ft / 30 m 3,053 ft / 930 m 235.93° / 223.74° ASPHALT 135 ft / 41 m 0 ft / 0 m APP CENTERLINE EDGE THRESHOLD RAIL

Approach Navaids

Runway Type Ident Frequency Range Bearing (true/mag) Slope Elevation
05 DME HA 111.35 MHz 18 nm / 33 km - - 262 ft / 80 m (AMSL)
05 LOC-ILS HA 111.35 MHz 18 nm / 33 km 54.60° / 42.41° - 262 ft / 80 m (AMSL)
23 DME HF 110.70 MHz 18 nm / 33 km - - 262 ft / 80 m (AMSL)
23 LOC-ILS HF 110.70 MHz 18 nm / 33 km 234.60° / 222.41° - 262 ft / 80 m (AMSL)

Map

Weather


0- 5 10 15 20 25 30 35+ Temperature / °C

Clouds and Precipitation
Forecast for 2019-04-25 06:00 UTC. Updated 2 hours ago

Ground ~20,000 ft ~40,000 ft Winds

METAR

ENHF 250520Z VRB02KT CAVOK 05/03 Q1024 RMK WIND 1254FT 12004KT

TAF

Not found
Warning: Do not use this data for real-world aviation or navigation. No guarantee of current accuracy is given.